createdAt,value
2017-04-23T00:00:14.402Z,91.50
2017-04-23T00:01:13.701Z,91.70
2017-04-23T00:02:12.896Z,91.40
2017-04-23T00:03:12.881Z,91.60
2017-04-23T00:04:12.056Z,92.00
2017-04-23T00:05:11.939Z,91.70
2017-04-23T00:06:11.173Z,92.90
2017-04-23T00:07:10.375Z,91.70
2017-04-23T00:08:09.620Z,91.60
2017-04-23T00:09:08.808Z,91.50
2017-04-23T00:10:08.748Z,91.80
2017-04-23T00:11:07.908Z,91.70
2017-04-23T00:12:07.880Z,91.80
2017-04-23T00:13:07.076Z,91.90
2017-04-23T00:14:06.288Z,91.80
2017-04-23T00:15:06.153Z,91.50
2017-04-23T00:16:05.312Z,91.50
2017-04-23T00:17:04.484Z,91.50
2017-04-23T00:18:03.652Z,91.50
2017-04-23T00:19:03.540Z,91.60
2017-04-23T00:20:03.404Z,91.70
2017-04-23T00:21:02.564Z,91.90
2017-04-23T00:22:01.748Z,92.10
2017-04-23T00:23:00.897Z,92.40
2017-04-23T00:24:00.051Z,92.20
2017-04-23T00:24:59.244Z,92.30
2017-04-23T00:25:58.416Z,92.30
2017-04-23T00:26:57.599Z,92.20
2017-04-23T00:27:56.704Z,92.20
2017-04-23T00:28:55.891Z,92.20
2017-04-23T00:29:55.044Z,92.00
2017-04-23T00:30:54.243Z,92.20
2017-04-23T00:31:53.474Z,92.20
2017-04-23T00:32:52.625Z,92.20
2017-04-23T00:33:51.883Z,92.30
2017-04-23T00:34:51.081Z,92.20
2017-04-23T00:35:50.222Z,92.40
2017-04-23T00:36:49.364Z,92.50
2017-04-23T00:37:50.422Z,92.40
2017-04-23T00:38:49.572Z,92.50
2017-04-23T00:39:48.768Z,92.50
2017-04-23T00:40:47.975Z,92.50
2017-04-23T00:41:47.135Z,92.50
2017-04-23T00:42:46.303Z,92.30
2017-04-23T00:43:46.183Z,92.50
2017-04-23T00:44:45.360Z,92.50
2017-04-23T00:45:44.564Z,92.20
2017-04-23T00:46:43.707Z,92.30
2017-04-23T00:47:42.931Z,92.20
2017-04-23T00:48:42.112Z,92.00
2017-04-23T00:49:41.316Z,92.20
2017-04-23T00:50:41.324Z,91.90
2017-04-23T00:51:41.304Z,91.90
2017-04-23T00:52:40.502Z,92.40
2017-04-23T00:53:39.690Z,92.30
2017-04-23T00:54:38.848Z,92.50
2017-04-23T00:55:38.411Z,92.80
2017-04-23T00:56:37.514Z,92.70
2017-04-23T00:57:36.659Z,92.80
2017-04-23T00:58:36.576Z,93.00
2017-04-23T00:59:35.753Z,93.00
2017-04-23T01:00:35.666Z,93.10
2017-04-23T01:01:34.888Z,92.70
2017-04-23T01:02:34.097Z,92.70
2017-04-23T01:03:33.388Z,93.20
2017-04-23T01:04:32.565Z,93.20
2017-04-23T01:05:31.709Z,92.90
2017-04-23T01:06:30.884Z,92.80
2017-04-23T01:07:30.819Z,92.80
2017-04-23T01:08:30.021Z,93.00
2017-04-23T01:09:29.119Z,92.90
2017-04-23T01:10:28.331Z,93.00
2017-04-23T01:11:27.484Z,92.90
2017-04-23T01:12:26.708Z,93.10
2017-04-23T01:13:25.876Z,93.20
2017-04-23T01:14:25.011Z,93.10
2017-04-23T01:15:24.153Z,93.30
2017-04-23T01:16:23.281Z,93.50
2017-04-23T01:17:22.432Z,93.30
2017-04-23T01:18:21.676Z,93.60
2017-04-23T01:19:20.848Z,93.50
2017-04-23T01:20:19.986Z,93.40
2017-04-23T01:21:19.156Z,93.50
2017-04-23T01:22:18.316Z,93.40
2017-04-23T01:23:17.595Z,93.70
2017-04-23T01:24:16.769Z,93.60
2017-04-23T01:25:16.671Z,93.30
2017-04-23T01:26:16.547Z,93.30
2017-04-23T01:27:15.848Z,93.20
2017-04-23T01:28:15.027Z,93.30
2017-04-23T01:29:14.188Z,93.40
2017-04-23T01:30:14.148Z,93.30
2017-04-23T01:31:13.311Z,93.60
2017-04-23T01:32:12.465Z,93.40
2017-04-23T01:33:11.716Z,93.30
2017-04-23T01:34:11.028Z,93.30
2017-04-23T01:35:10.175Z,93.50
2017-04-23T01:36:10.075Z,93.30
2017-04-23T01:37:09.306Z,92.80
2017-04-23T01:38:08.476Z,93.10
2017-04-23T01:39:07.677Z,92.90
2017-04-23T01:40:06.827Z,93.00
2017-04-23T01:41:06.825Z,93.40
2017-04-23T01:42:06.025Z,93.10
2017-04-23T01:43:05.897Z,93.10
2017-04-23T01:44:05.069Z,93.00
2017-04-23T01:45:04.370Z,93.20
2017-04-23T01:46:03.544Z,93.30
2017-04-23T01:47:02.707Z,93.30
2017-04-23T01:48:01.862Z,93.30
2017-04-23T01:49:01.778Z,93.40
2017-04-23T01:50:01.022Z,93.50
2017-04-23T01:51:00.197Z,93.30
2017-04-23T01:51:59.336Z,93.50
2017-04-23T01:52:59.269Z,93.40
2017-04-23T01:53:58.447Z,93.60
2017-04-23T01:54:57.669Z,93.70
2017-04-23T01:55:56.873Z,93.70
2017-04-23T01:56:55.996Z,93.80
2017-04-23T01:57:55.233Z,93.70
2017-04-23T01:58:55.132Z,93.60
2017-04-23T01:59:54.232Z,93.80
2017-04-23T02:00:53.416Z,93.80
2017-04-23T02:01:52.598Z,93.90
2017-04-23T02:03:51.289Z,94.10
2017-04-23T02:04:50.476Z,93.70
2017-04-23T02:05:49.681Z,93.70
2017-04-23T02:06:49.624Z,93.70
2017-04-23T02:07:48.842Z,93.50
2017-04-23T02:08:47.993Z,93.80
2017-04-23T02:09:47.163Z,93.60
2017-04-23T02:10:47.064Z,93.40
2017-04-23T02:11:46.956Z,93.30
2017-04-23T02:12:46.570Z,93.30
2017-04-23T02:13:45.845Z,93.30
2017-04-23T02:14:45.825Z,93.40
2017-04-23T02:15:45.043Z,93.40
2017-04-23T02:16:44.972Z,93.30
2017-04-23T02:17:44.133Z,93.30
2017-04-23T02:18:44.101Z,93.20
2017-04-23T02:19:43.483Z,93.10
2017-04-23T02:20:42.660Z,93.40
2017-04-23T02:21:41.949Z,93.40
2017-04-23T02:22:41.328Z,93.60
2017-04-23T02:23:40.456Z,93.00
2017-04-23T02:24:39.980Z,93.30
2017-04-23T02:25:39.884Z,93.10
2017-04-23T02:26:39.858Z,93.40
2017-04-23T02:27:39.048Z,93.20
2017-04-23T02:28:38.233Z,93.30
2017-04-23T02:30:37.278Z,93.30
2017-04-23T02:31:36.453Z,93.40
2017-04-23T02:32:35.594Z,93.60
2017-04-23T02:33:34.741Z,93.60
2017-04-23T02:34:33.890Z,94.00
2017-04-23T02:35:33.827Z,93.90
2017-04-23T02:36:33.008Z,93.80
2017-04-23T02:37:32.179Z,93.80
2017-04-23T02:38:32.068Z,93.80
2017-04-23T02:39:31.253Z,94.10
2017-04-23T02:40:31.140Z,94.20
2017-04-23T02:41:30.288Z,94.40
2017-04-23T02:42:29.468Z,94.40
2017-04-23T02:43:28.621Z,94.70
2017-04-23T02:44:28.508Z,94.80
2017-04-23T02:45:27.726Z,94.60
2017-04-23T02:46:27.603Z,94.70
2017-04-23T02:47:26.788Z,94.80
2017-04-23T02:48:26.134Z,94.80
2017-04-23T02:49:25.271Z,94.60
2017-04-23T02:50:26.425Z,94.50
2017-04-23T02:51:26.336Z,94.60
2017-04-23T02:52:25.618Z,94.70
2017-04-23T02:53:25.572Z,94.60
2017-04-23T02:54:28.841Z,94.40
2017-04-23T02:55:28.523Z,94.40
2017-04-23T02:56:27.772Z,94.60
2017-04-23T02:57:27.079Z,94.50
2017-04-23T02:58:28.273Z,94.50
2017-04-23T02:59:27.581Z,94.40
2017-04-23T03:00:28.890Z,94.40
2017-04-23T03:01:28.217Z,94.50
2017-04-23T03:02:27.526Z,94.30
2017-04-23T03:03:27.553Z,94.20
2017-04-23T03:04:31.495Z,94.30
2017-04-23T03:05:34.170Z,94.50
2017-04-23T03:06:33.330Z,94.50
2017-04-23T03:07:32.729Z,94.40
2017-04-23T03:08:31.962Z,94.20
2017-04-23T03:09:31.125Z,94.20
2017-04-23T03:10:30.356Z,94.20
2017-04-23T03:11:29.956Z,94.20
2017-04-23T03:12:29.261Z,94.10
2017-04-23T03:13:29.442Z,94.10
2017-04-23T03:14:29.383Z,94.00
2017-04-23T03:15:28.632Z,93.90
2017-04-23T03:16:28.541Z,93.90
2017-04-23T03:17:27.728Z,94.30
2017-04-23T03:18:27.806Z,94.10
2017-04-23T03:19:26.940Z,94.20
2017-04-23T03:20:26.116Z,94.10
2017-04-23T03:21:25.309Z,94.20
2017-04-23T03:22:24.480Z,94.00
2017-04-23T03:23:23.621Z,93.80
2017-04-23T03:24:22.817Z,93.60
2017-04-23T03:25:21.960Z,93.70
2017-04-23T03:26:21.121Z,93.80
2017-04-23T03:27:20.972Z,93.80
2017-04-23T03:28:20.157Z,93.80
2017-04-23T03:29:19.294Z,93.60
2017-04-23T03:30:18.448Z,93.60
2017-04-23T03:31:18.367Z,93.60
2017-04-23T03:32:19.169Z,93.70
2017-04-23T03:33:18.445Z,93.90
2017-04-23T03:34:17.600Z,93.70
2017-04-23T03:35:16.740Z,93.70
2017-04-23T03:36:15.931Z,93.70
2017-04-23T03:37:15.073Z,94.00
2017-04-23T03:38:14.229Z,93.80
2017-04-23T03:39:13.390Z,93.80
2017-04-23T03:40:12.532Z,93.90
2017-04-23T03:41:11.704Z,94.00
2017-04-23T03:42:10.876Z,93.90
2017-04-23T03:43:10.919Z,93.80
2017-04-23T03:44:10.120Z,93.60
2017-04-23T03:45:09.298Z,93.70
2017-04-23T03:46:08.455Z,93.70
2017-04-23T03:47:07.623Z,93.70
2017-04-23T03:48:06.775Z,93.60
2017-04-23T03:49:05.949Z,93.60
2017-04-23T03:50:05.128Z,93.70
2017-04-23T03:51:04.316Z,93.60
2017-04-23T03:52:03.624Z,93.60
2017-04-23T03:53:02.796Z,93.80
2017-04-23T03:54:02.032Z,93.70
2017-04-23T03:55:01.952Z,94.10
2017-04-23T03:56:01.858Z,93.40
2017-04-23T03:57:01.032Z,93.30
2017-04-23T03:58:00.879Z,93.50
2017-04-23T03:59:00.067Z,93.30
2017-04-23T03:59:59.394Z,93.60
2017-04-23T04:00:58.796Z,93.80
2017-04-23T04:01:57.903Z,93.50
2017-04-23T04:02:57.873Z,93.30
2017-04-23T04:03:57.748Z,93.00
2017-04-23T04:04:56.849Z,93.10
2017-04-23T04:05:56.008Z,93.30
2017-04-23T04:06:55.160Z,93.60
2017-04-23T04:07:55.038Z,93.70
2017-04-23T04:08:54.192Z,93.60
2017-04-23T04:09:53.388Z,93.60
2017-04-23T04:10:52.564Z,93.60
2017-04-23T04:11:51.752Z,93.60
2017-04-23T04:12:50.921Z,93.60
2017-04-23T04:13:50.076Z,93.40
2017-04-23T04:14:49.230Z,93.30
2017-04-23T04:15:48.372Z,93.50
2017-04-23T04:16:52.043Z,93.50
2017-04-23T04:17:50.460Z,93.50
2017-04-23T04:18:49.604Z,93.30
2017-04-23T04:19:49.505Z,93.30
2017-04-23T04:20:48.620Z,93.40
2017-04-23T04:21:48.072Z,93.40
2017-04-23T04:22:47.224Z,93.30
2017-04-23T04:23:46.390Z,93.20
2017-04-23T04:24:45.563Z,93.30
2017-04-23T04:25:44.724Z,93.40
2017-04-23T04:26:44.609Z,93.40
2017-04-23T04:27:44.146Z,93.10
2017-04-23T04:28:43.341Z,93.30
2017-04-23T04:29:42.492Z,93.20
2017-04-23T04:30:41.751Z,93.10
2017-04-23T04:31:40.908Z,92.80
2017-04-23T04:32:40.053Z,93.30
2017-04-23T04:33:39.331Z,93.10
2017-04-23T04:34:38.463Z,92.90
2017-04-23T04:35:37.621Z,93.10
2017-04-23T04:36:38.062Z,92.90
2017-04-23T04:37:37.451Z,92.90
2017-04-23T04:38:37.363Z,92.90
2017-04-23T04:39:36.491Z,92.30
2017-04-23T04:40:35.701Z,92.20
2017-04-23T04:41:34.853Z,91.90
2017-04-23T04:42:34.594Z,91.50
2017-04-23T04:43:34.450Z,92.00
2017-04-23T04:44:33.697Z,91.90
2017-04-23T04:45:33.599Z,92.50
2017-04-23T04:46:33.488Z,92.00
2017-04-23T04:47:32.627Z,91.80
2017-04-23T04:48:31.832Z,91.70
2017-04-23T04:49:31.112Z,91.50
2017-04-23T04:50:30.664Z,91.90
2017-04-23T04:51:30.555Z,91.90
2017-04-23T04:52:29.702Z,92.00
2017-04-23T04:53:28.869Z,91.70
2017-04-23T04:54:28.043Z,91.70
2017-04-23T04:55:27.198Z,92.10
2017-04-23T04:56:26.915Z,91.70
2017-04-23T04:57:26.792Z,91.40
2017-04-23T04:58:25.937Z,91.60
2017-04-23T04:59:25.081Z,92.00
2017-04-23T05:00:25.008Z,92.00
2017-04-23T05:01:24.216Z,91.60
2017-04-23T05:02:23.553Z,91.40
2017-04-23T05:03:22.687Z,91.70
2017-04-23T05:04:21.914Z,91.90
2017-04-23T05:05:21.133Z,91.70
2017-04-23T05:06:21.055Z,91.90
2017-04-23T05:07:20.212Z,91.70
2017-04-23T05:08:20.124Z,91.80
2017-04-23T05:09:20.142Z,91.90
2017-04-23T05:10:19.686Z,92.00
2017-04-23T05:11:18.851Z,92.00
2017-04-23T05:12:18.052Z,91.80
2017-04-23T05:13:17.216Z,91.90
2017-04-23T05:14:16.381Z,91.80
2017-04-23T05:15:16.259Z,91.80
2017-04-23T05:16:15.789Z,91.90
2017-04-23T05:17:14.956Z,91.90
2017-04-23T05:18:14.857Z,92.00
2017-04-23T05:19:14.042Z,91.80
2017-04-23T05:20:14.066Z,91.60
2017-04-23T05:21:14.616Z,91.80
2017-04-23T05:22:13.787Z,91.60
2017-04-23T05:23:12.980Z,91.50
2017-04-23T05:24:12.948Z,91.20
2017-04-23T05:25:12.869Z,91.40
2017-04-23T05:26:12.166Z,91.00
2017-04-23T05:27:11.311Z,91.40
2017-04-23T05:28:10.735Z,91.30
2017-04-23T05:29:10.617Z,90.80
2017-04-23T05:30:09.772Z,90.60
2017-04-23T05:31:08.924Z,91.00
2017-04-23T05:32:08.031Z,90.70
2017-04-23T05:33:07.172Z,91.20
2017-04-23T05:34:07.710Z,91.30
2017-04-23T05:35:06.886Z,90.80
2017-04-23T05:36:06.860Z,90.60
2017-04-23T05:37:05.967Z,90.60
2017-04-23T05:38:05.876Z,91.10
2017-04-23T05:39:05.868Z,90.70
2017-04-23T05:40:05.126Z,90.70
2017-04-23T05:41:04.281Z,90.60
2017-04-23T05:42:03.516Z,90.90
2017-04-23T05:43:02.702Z,90.40
2017-04-23T05:44:01.881Z,90.30
2017-04-23T05:45:01.128Z,90.60
2017-04-23T05:46:00.216Z,90.60
2017-04-23T05:46:59.364Z,90.80
2017-04-23T05:47:58.542Z,90.90
2017-04-23T05:48:57.722Z,91.60
2017-04-23T05:49:56.893Z,91.20
2017-04-23T05:50:56.482Z,91.10
2017-04-23T05:51:55.624Z,91.00
2017-04-23T05:52:55.531Z,91.20
2017-04-23T05:53:54.693Z,91.00
2017-04-23T05:54:53.874Z,90.90
2017-04-23T05:55:53.223Z,90.70
2017-04-23T05:56:52.439Z,91.20
2017-04-23T05:57:51.607Z,91.00
2017-04-23T05:58:51.140Z,90.70
2017-04-23T05:59:50.272Z,90.30
2017-04-23T06:00:49.380Z,90.40
2017-04-23T06:01:48.540Z,90.70
2017-04-23T06:02:47.725Z,90.70
2017-04-23T06:03:46.887Z,91.10
2017-04-23T06:04:46.791Z,91.10
2017-04-23T06:05:46.663Z,90.90
2017-04-23T06:06:45.847Z,91.20
2017-04-23T06:07:45.188Z,91.20
2017-04-23T06:08:44.404Z,90.80
2017-04-23T06:09:43.724Z,90.60
2017-04-23T06:10:43.872Z,90.50
2017-04-23T06:11:43.022Z,90.80
2017-04-23T06:12:42.309Z,90.60
2017-04-23T06:13:41.475Z,90.70
2017-04-23T06:14:40.599Z,90.60
2017-04-23T06:15:39.859Z,90.80
2017-04-23T06:16:39.041Z,90.80
2017-04-23T06:17:38.190Z,90.20
2017-04-23T06:18:37.352Z,90.50
2017-04-23T06:19:37.176Z,90.50
2017-04-23T06:20:36.325Z,90.60
2017-04-23T06:21:35.493Z,90.80
2017-04-23T06:22:34.632Z,90.70
2017-04-23T06:23:34.599Z,90.20
2017-04-23T06:24:33.848Z,90.20
2017-04-23T06:25:32.977Z,89.80
2017-04-23T06:26:32.152Z,89.90
2017-04-23T06:27:31.366Z,90.00
2017-04-23T06:28:31.249Z,90.10
2017-04-23T06:29:30.475Z,88.60
2017-04-23T06:30:30.937Z,87.50
2017-04-23T06:31:31.138Z,87.50
2017-04-23T06:32:30.318Z,89.20
2017-04-23T06:33:29.484Z,88.50
2017-04-23T06:34:28.648Z,87.50
2017-04-23T06:35:27.842Z,89.00
2017-04-23T06:36:27.004Z,88.00
2017-04-23T06:37:26.197Z,88.30
2017-04-23T06:38:25.305Z,88.20
2017-04-23T06:39:25.237Z,86.40
2017-04-23T06:40:24.308Z,87.60
2017-04-23T06:41:23.460Z,86.10
2017-04-23T06:42:22.652Z,86.70
2017-04-23T06:43:22.572Z,88.00
2017-04-23T06:44:22.544Z,86.10
2017-04-23T06:45:21.720Z,84.00
2017-04-23T06:46:21.034Z,85.10
2017-04-23T06:47:20.264Z,84.00
2017-04-23T06:48:19.473Z,85.20
2017-04-23T06:49:18.638Z,83.60
2017-04-23T06:50:18.898Z,81.30
2017-04-23T06:51:18.177Z,84.30
2017-04-23T06:52:17.464Z,81.90
2017-04-23T06:53:16.958Z,81.80
2017-04-23T06:54:16.166Z,82.00
2017-04-23T06:55:16.193Z,82.60
2017-04-23T06:56:16.123Z,81.20
2017-04-23T06:57:15.474Z,82.40
2017-04-23T06:58:15.025Z,81.80
2017-04-23T06:59:14.696Z,81.70
2017-04-23T07:00:14.015Z,81.90
2017-04-23T07:01:13.147Z,79.90
2017-04-23T07:02:12.441Z,80.40
2017-04-23T07:03:12.391Z,81.60
2017-04-23T07:04:13.839Z,81.90
2017-04-23T07:05:13.189Z,80.50
2017-04-23T07:06:13.130Z,81.10
2017-04-23T07:07:12.369Z,81.80
2017-04-23T07:09:11.136Z,82.30
2017-04-23T07:10:10.580Z,81.60
2017-04-23T07:11:09.805Z,82.20
2017-04-23T07:13:22.360Z,81.60
2017-04-23T07:14:22.149Z,80.60
2017-04-23T07:15:22.079Z,80.20
2017-04-23T07:16:21.247Z,80.90
2017-04-23T07:17:21.217Z,80.90
2017-04-23T07:18:20.391Z,80.30
2017-04-23T07:19:21.844Z,80.60
2017-04-23T07:20:21.094Z,80.20
2017-04-23T07:21:20.323Z,81.10
2017-04-23T07:22:19.493Z,83.30
2017-04-23T07:23:18.706Z,84.60
2017-04-23T07:24:17.945Z,83.20
2017-04-23T07:25:17.107Z,83.20
2017-04-23T07:26:17.234Z,84.20
2017-04-23T07:27:16.483Z,83.80
2017-04-23T07:28:18.702Z,84.40
2017-04-23T07:29:17.955Z,83.60
2017-04-23T07:30:17.225Z,83.80
2017-04-23T07:31:17.133Z,84.40
2017-04-23T07:32:17.112Z,84.00
2017-04-23T07:33:19.271Z,83.80
2017-04-23T07:34:18.496Z,83.70
2017-04-23T07:35:17.903Z,83.60
2017-04-23T07:36:17.160Z,83.70
2017-04-23T07:37:16.744Z,84.80
2017-04-23T07:38:15.900Z,84.20
2017-04-23T07:39:15.083Z,84.10
2017-04-23T07:40:14.328Z,83.90
2017-04-23T07:41:13.688Z,84.00
2017-04-23T07:43:13.122Z,83.70
2017-04-23T07:44:13.161Z,83.60
2017-04-23T07:45:12.357Z,83.40
2017-04-23T07:46:11.611Z,82.20
2017-04-23T07:47:10.806Z,83.00
2017-04-23T07:48:10.004Z,82.30
2017-04-23T07:49:09.188Z,82.70
2017-04-23T07:50:08.488Z,82.60
2017-04-23T07:51:07.712Z,82.10
2017-04-23T07:52:06.884Z,80.30
2017-04-23T07:53:06.085Z,81.50
2017-04-23T07:54:05.269Z,80.50
2017-04-23T07:55:04.407Z,80.20
2017-04-23T07:56:03.568Z,81.40
2017-04-23T07:57:02.770Z,82.00
2017-04-23T07:58:01.931Z,78.20
2017-04-23T07:59:01.112Z,79.50
2017-04-23T08:00:00.297Z,78.50
2017-04-23T08:00:59.491Z,78.30
2017-04-23T08:01:58.652Z,77.60
2017-04-23T08:02:57.821Z,78.20
2017-04-23T08:03:56.985Z,78.10
2017-04-23T08:04:56.186Z,77.50
2017-04-23T08:05:55.371Z,76.30
2017-04-23T08:06:54.740Z,76.40
2017-04-23T08:07:54.681Z,78.40
2017-04-23T08:08:53.820Z,77.40
2017-04-23T08:09:53.784Z,78.30
2017-04-23T08:10:52.960Z,76.70
2017-04-23T08:11:52.148Z,76.10
2017-04-23T08:12:51.329Z,76.40
2017-04-23T08:13:50.560Z,76.10
2017-04-23T08:14:49.788Z,75.90
2017-04-23T08:15:49.111Z,74.40
2017-04-23T08:16:48.284Z,75.80
2017-04-23T08:17:47.588Z,74.30
2017-04-23T08:18:46.781Z,75.40
2017-04-23T08:19:45.951Z,75.30
2017-04-23T08:20:45.148Z,75.30
2017-04-23T08:21:44.299Z,74.30
2017-04-23T08:22:43.481Z,75.00
2017-04-23T08:23:42.986Z,75.20
2017-04-23T08:24:42.204Z,75.60
2017-04-23T08:25:41.632Z,74.70
2017-04-23T08:26:40.803Z,72.90
2017-04-23T08:27:39.945Z,74.10
2017-04-23T08:28:39.055Z,72.60
2017-04-23T08:29:38.285Z,71.80
2017-04-23T08:30:38.267Z,72.90
2017-04-23T08:31:37.473Z,74.40
2017-04-23T08:32:36.665Z,74.70
2017-04-23T08:33:36.141Z,73.40
2017-04-23T08:34:35.445Z,72.20
2017-04-23T08:35:35.366Z,70.90
2017-04-23T08:36:35.225Z,71.80
2017-04-23T08:38:33.819Z,70.20
2017-04-23T08:39:33.019Z,69.00
2017-04-23T08:40:32.290Z,69.20
2017-04-23T08:41:31.537Z,70.30
2017-04-23T08:42:30.937Z,70.50
2017-04-23T08:43:30.137Z,70.10
2017-04-23T08:44:29.304Z,70.60
2017-04-23T08:45:28.865Z,70.30
2017-04-23T08:46:28.116Z,68.90
2017-04-23T08:47:27.297Z,70.30
2017-04-23T08:48:26.405Z,68.30
2017-04-23T08:49:25.620Z,68.80
2017-04-23T08:50:25.528Z,68.30
2017-04-23T08:51:24.711Z,68.90
2017-04-23T08:52:24.573Z,69.30
2017-04-23T08:53:23.805Z,70.70
2017-04-23T08:54:23.778Z,72.90
2017-04-23T08:55:23.295Z,70.70
2017-04-23T08:56:23.196Z,68.00
2017-04-23T08:57:23.168Z,68.70
2017-04-23T08:58:22.347Z,68.40
2017-04-23T08:59:21.545Z,69.50
2017-04-23T09:00:20.736Z,67.80
2017-04-23T09:01:19.887Z,65.90
2017-04-23T09:02:19.083Z,68.30
2017-04-23T09:03:18.353Z,68.70
2017-04-23T09:04:17.499Z,70.40
2017-04-23T09:05:16.725Z,71.30
2017-04-23T09:06:15.996Z,72.30
2017-04-23T09:07:15.927Z,73.40
2017-04-23T09:08:15.058Z,73.90
2017-04-23T09:09:14.297Z,74.30
2017-04-23T09:10:13.576Z,74.30
2017-04-23T09:11:13.996Z,74.80
2017-04-23T09:12:13.196Z,75.00
2017-04-23T09:13:12.364Z,75.40
2017-04-23T09:14:11.653Z,75.20
2017-04-23T09:15:10.833Z,75.90
2017-04-23T09:16:10.841Z,75.80
2017-04-23T09:17:10.103Z,74.80
2017-04-23T09:18:09.324Z,76.10
2017-04-23T09:19:09.316Z,75.20
2017-04-23T09:20:08.590Z,74.80
2017-04-23T09:21:07.932Z,74.60
2017-04-23T09:22:07.156Z,73.80
2017-04-23T09:23:06.372Z,73.50
2017-04-23T09:24:06.299Z,73.20
2017-04-23T09:25:05.544Z,71.60
2017-04-23T09:26:04.692Z,67.90
2017-04-23T09:27:03.909Z,67.40
2017-04-23T09:28:03.081Z,69.30
2017-04-23T09:29:02.394Z,67.00
2017-04-23T09:30:01.577Z,63.80
2017-04-23T09:31:00.792Z,63.90
2017-04-23T09:32:01.180Z,63.20
2017-04-23T09:33:00.340Z,61.00
2017-04-23T09:33:59.521Z,60.90
2017-04-23T09:34:58.751Z,61.60
2017-04-23T09:35:58.065Z,62.20
2017-04-23T09:36:58.043Z,62.90
2017-04-23T09:37:57.589Z,62.10
2017-04-23T09:38:56.781Z,64.10
2017-04-23T09:39:56.013Z,66.50
2017-04-23T09:40:55.276Z,64.80
2017-04-23T09:41:54.530Z,65.60
2017-04-23T09:42:53.732Z,64.70
2017-04-23T09:43:53.366Z,65.50
2017-04-23T09:44:52.548Z,63.90
2017-04-23T09:45:51.788Z,66.00
2017-04-23T09:46:51.746Z,65.30
2017-04-23T09:47:50.940Z,63.90
2017-04-23T09:48:50.113Z,64.90
2017-04-23T09:49:49.501Z,64.10
2017-04-23T09:50:48.650Z,64.50
2017-04-23T09:51:47.860Z,63.00
2017-04-23T09:52:47.046Z,63.20
2017-04-23T09:53:47.082Z,62.40
2017-04-23T09:54:46.388Z,62.90
2017-04-23T09:55:45.692Z,61.20
2017-04-23T09:56:45.071Z,60.70
2017-04-23T09:57:45.460Z,63.10
2017-04-23T09:58:44.673Z,60.80
2017-04-23T09:59:43.941Z,59.50
2017-04-23T10:00:43.167Z,61.20
2017-04-23T10:01:42.324Z,59.10
2017-04-23T10:02:41.539Z,58.40
2017-04-23T10:03:42.374Z,59.20
2017-04-23T10:04:41.609Z,61.70
2017-04-23T10:05:40.858Z,61.90
2017-04-23T10:06:40.160Z,62.60
2017-04-23T10:07:39.315Z,60.50
2017-04-23T10:08:39.187Z,62.20
2017-04-23T10:09:38.524Z,60.40
2017-04-23T10:10:38.464Z,59.00
2017-04-23T10:11:37.693Z,57.60
2017-04-23T10:12:36.979Z,58.10
2017-04-23T10:13:36.217Z,57.20
2017-04-23T10:14:35.549Z,59.20
2017-04-23T10:15:34.838Z,60.10
2017-04-23T10:16:34.036Z,61.20
2017-04-23T10:17:33.278Z,58.20
2017-04-23T10:18:32.483Z,57.10
2017-04-23T10:19:31.785Z,56.00
2017-04-23T10:20:30.989Z,57.20
2017-04-23T10:21:30.517Z,60.30
2017-04-23T10:22:29.723Z,57.00
2017-04-23T10:23:28.928Z,54.50
2017-04-23T10:24:28.219Z,54.30
2017-04-23T10:25:27.490Z,55.60
2017-04-23T10:26:26.644Z,54.10
2017-04-23T10:27:26.617Z,55.50
2017-04-23T10:28:25.815Z,55.10
2017-04-23T10:29:25.085Z,54.00
2017-04-23T10:30:24.291Z,53.50
2017-04-23T10:31:23.678Z,54.00
2017-04-23T10:33:22.675Z,54.80
2017-04-23T10:34:21.873Z,57.40
2017-04-23T10:35:21.798Z,62.00
2017-04-23T10:36:21.681Z,65.90
2017-04-23T10:37:21.031Z,68.20
2017-04-23T10:38:21.141Z,71.20
2017-04-23T10:39:20.346Z,73.60
2017-04-23T10:40:19.633Z,75.40
2017-04-23T10:41:18.826Z,76.40
2017-04-23T10:42:18.167Z,74.40
2017-04-23T10:43:17.517Z,76.90
2017-04-23T10:44:16.698Z,77.90
2017-04-23T10:45:15.905Z,77.20
2017-04-23T10:46:15.105Z,74.60
2017-04-23T10:47:14.347Z,73.90
2017-04-23T10:48:13.547Z,74.90
2017-04-23T10:49:12.784Z,75.90
2017-04-23T10:50:11.997Z,75.80
2017-04-23T10:51:11.268Z,76.30
2017-04-23T10:52:10.423Z,77.00
2017-04-23T10:53:10.407Z,77.50
2017-04-23T10:54:09.612Z,80.20
2017-04-23T10:55:09.559Z,80.70
2017-04-23T10:56:08.784Z,85.10
2017-04-23T10:57:08.030Z,83.00
2017-04-23T10:58:07.243Z,87.10
2017-04-23T10:59:07.137Z,85.30
2017-04-23T11:00:06.324Z,86.60
2017-04-23T11:01:05.477Z,89.30
2017-04-23T11:02:04.935Z,87.70
2017-04-23T11:03:04.117Z,89.30
2017-04-23T11:04:03.325Z,85.20
2017-04-23T11:05:03.252Z,87.80
2017-04-23T11:06:02.787Z,86.80
2017-04-23T11:07:01.943Z,89.20
2017-04-23T11:08:01.136Z,89.50
2017-04-23T11:09:00.472Z,87.90
2017-04-23T11:09:59.668Z,85.60
2017-04-23T11:10:58.797Z,86.50
2017-04-23T11:11:58.043Z,83.50
2017-04-23T11:12:57.281Z,82.30
2017-04-23T11:13:56.522Z,83.70
2017-04-23T11:14:55.721Z,82.10
2017-04-23T11:15:55.624Z,82.00
2017-04-23T11:16:55.629Z,82.90
2017-04-23T11:17:55.578Z,80.60
2017-04-23T11:18:54.849Z,77.10
2017-04-23T11:19:54.113Z,76.70
2017-04-23T11:20:54.181Z,77.50
2017-04-23T11:21:53.394Z,81.20
2017-04-23T11:22:52.592Z,77.10
2017-04-23T11:23:52.533Z,79.10
2017-04-23T11:24:51.805Z,77.20
2017-04-23T11:25:50.973Z,75.50
2017-04-23T11:26:50.093Z,72.90
2017-04-23T11:27:49.389Z,67.90
2017-04-23T11:28:48.803Z,67.30
2017-04-23T11:29:48.794Z,68.80
2017-04-23T11:30:48.146Z,66.10
2017-04-23T11:31:47.356Z,65.80
2017-04-23T11:32:46.610Z,66.70
2017-04-23T11:33:45.801Z,68.10
2017-04-23T11:34:45.680Z,64.80
2017-04-23T11:35:45.116Z,61.40
2017-04-23T11:36:44.314Z,62.50
2017-04-23T11:37:43.497Z,62.30
2017-04-23T11:38:42.737Z,62.00
2017-04-23T11:39:41.947Z,59.90
2017-04-23T11:40:41.179Z,58.60
2017-04-23T11:41:40.744Z,56.10
2017-04-23T11:42:40.700Z,57.20
2017-04-23T11:43:40.033Z,58.20
2017-04-23T11:44:40.086Z,57.80
2017-04-23T11:45:39.339Z,58.40
2017-04-23T11:46:39.255Z,58.00
2017-04-23T11:47:38.566Z,59.50
2017-04-23T11:48:37.855Z,60.30
2017-04-23T11:49:37.077Z,61.80
2017-04-23T11:50:36.281Z,61.40
2017-04-23T11:51:35.580Z,59.80
2017-04-23T11:52:35.013Z,60.00
2017-04-23T11:53:34.209Z,58.50
2017-04-23T11:54:33.406Z,57.80
2017-04-23T11:55:32.597Z,58.70
2017-04-23T11:56:31.769Z,59.50
2017-04-23T11:57:31.013Z,60.70
2017-04-23T11:58:31.515Z,61.50
2017-04-23T11:59:30.750Z,61.20
2017-04-23T12:00:29.980Z,60.00
2017-04-23T12:01:29.549Z,59.70
2017-04-23T12:02:28.681Z,61.30
2017-04-23T12:03:27.865Z,60.90
2017-04-23T12:04:27.809Z,60.90
2017-04-23T12:05:27.024Z,60.80
2017-04-23T12:06:26.305Z,61.00
2017-04-23T12:07:25.530Z,58.80
2017-04-23T12:08:24.777Z,54.90
2017-04-23T12:09:24.265Z,55.30
2017-04-23T12:10:23.525Z,53.00
2017-04-23T12:11:23.598Z,52.90
2017-04-23T12:12:22.819Z,49.80
2017-04-23T12:13:22.049Z,50.00
2017-04-23T12:14:21.325Z,50.20
2017-04-23T12:15:20.517Z,49.40
2017-04-23T12:16:19.868Z,50.00
2017-04-23T12:17:19.781Z,52.50
2017-04-23T12:18:19.481Z,51.90
2017-04-23T12:19:19.392Z,51.20
2017-04-23T12:20:18.620Z,51.60
2017-04-23T12:21:17.775Z,51.20
2017-04-23T12:22:16.967Z,51.60
2017-04-23T12:23:16.186Z,50.20
2017-04-23T12:24:15.409Z,49.20
2017-04-23T12:25:14.692Z,49.80
2017-04-23T12:26:13.901Z,48.20
2017-04-23T12:27:13.957Z,47.60
2017-04-23T12:28:13.318Z,47.00
2017-04-23T12:29:12.941Z,47.50
2017-04-23T12:30:12.589Z,46.40
2017-04-23T12:31:12.920Z,49.50
2017-04-23T12:32:12.125Z,50.00
2017-04-23T12:33:11.326Z,49.40
2017-04-23T12:34:11.321Z,49.80
2017-04-23T12:35:10.648Z,49.80
2017-04-23T12:36:09.993Z,50.50
2017-04-23T12:37:09.981Z,52.50
2017-04-23T12:38:09.236Z,50.00
2017-04-23T12:39:09.166Z,51.50
2017-04-23T12:40:09.089Z,50.90
2017-04-23T12:41:08.380Z,49.60
2017-04-23T12:42:07.616Z,46.40
2017-04-23T12:43:07.144Z,47.80
2017-04-23T12:44:07.092Z,46.60
2017-04-23T12:45:06.294Z,45.40
2017-04-23T12:46:05.594Z,43.50
2017-04-23T12:47:04.843Z,42.90
2017-04-23T12:48:04.130Z,43.10
2017-04-23T12:49:03.343Z,42.20
2017-04-23T12:50:02.512Z,43.20
2017-04-23T12:51:01.694Z,41.00
2017-04-23T12:52:00.943Z,42.60